sensor_id;sensor_type;location;lat;lon;timestamp;temperature;humidity
14349;DHT22;7258;50.376;8.742;2023-05-24T00:00:42;9.10;99.90
14349;DHT22;7258;50.376;8.742;2023-05-24T00:02:45;9.00;99.90
14349;DHT22;7258;50.376;8.742;2023-05-24T00:04:48;9.00;99.90
14349;DHT22;7258;50.376;8.742;2023-05-24T00:06:53;9.00;99.90
14349;DHT22;7258;50.376;8.742;2023-05-24T00:08:56;8.90;99.90
14349;DHT22;7258;50.376;8.742;2023-05-24T00:10:59;8.90;99.90
14349;DHT22;7258;50.376;8.742;2023-05-24T00:13:02;8.80;99.90
14349;DHT22;7258;50.376;8.742;2023-05-24T00:15:08;8.80;99.90
14349;DHT22;7258;50.376;8.742;2023-05-24T00:17:10;8.70;99.90
14349;DHT22;7258;50.376;8.742;2023-05-24T00:19:14;8.70;99.90
14349;DHT22;7258;50.376;8.742;2023-05-24T00:21:19;8.60;99.90
14349;DHT22;7258;50.376;8.742;2023-05-24T00:23:22;8.60;99.90
14349;DHT22;7258;50.376;8.742;2023-05-24T00:25:24;8.60;99.90
14349;DHT22;7258;50.376;8.742;2023-05-24T00:27:27;8.50;99.90
14349;DHT22;7258;50.376;8.742;2023-05-24T00:29:31;8.50;99.90
14349;DHT22;7258;50.376;8.742;2023-05-24T00:31:35;8.50;99.90
14349;DHT22;7258;50.376;8.742;2023-05-24T00:33:38;8.40;99.90
14349;DHT22;7258;50.376;8.742;2023-05-24T00:35:41;8.40;99.90
14349;DHT22;7258;50.376;8.742;2023-05-24T00:37:43;8.40;99.90
14349;DHT22;7258;50.376;8.742;2023-05-24T00:39:47;8.40;99.90
14349;DHT22;7258;50.376;8.742;2023-05-24T00:41:49;8.40;99.90
14349;DHT22;7258;50.376;8.742;2023-05-24T00:43:52;8.40;99.90
14349;DHT22;7258;50.376;8.742;2023-05-24T00:46:14;8.40;99.90
14349;DHT22;7258;50.376;8.742;2023-05-24T00:48:19;8.50;99.90
14349;DHT22;7258;50.376;8.742;2023-05-24T00:50:23;8.50;99.90
14349;DHT22;7258;50.376;8.742;2023-05-24T00:52:27;8.50;99.90
14349;DHT22;7258;50.376;8.742;2023-05-24T00:54:30;8.60;99.90
14349;DHT22;7258;50.376;8.742;2023-05-24T00:56:33;8.60;99.90
14349;DHT22;7258;50.376;8.742;2023-05-24T00:58:38;8.60;99.90
14349;DHT22;7258;50.376;8.742;2023-05-24T01:00:42;8.70;99.90
14349;DHT22;7258;50.376;8.742;2023-05-24T01:02:45;8.70;99.90
14349;DHT22;7258;50.376;8.742;2023-05-24T01:04:51;8.70;99.90
14349;DHT22;7258;50.376;8.742;2023-05-24T01:07:08;8.80;99.90
14349;DHT22;7258;50.376;8.742;2023-05-24T01:09:18;8.80;99.90
14349;DHT22;7258;50.376;8.742;2023-05-24T01:11:31;8.80;99.90
14349;DHT22;7258;50.376;8.742;2023-05-24T01:13:44;8.80;99.90
14349;DHT22;7258;50.376;8.742;2023-05-24T01:15:52;8.90;99.90
14349;DHT22;7258;50.376;8.742;2023-05-24T01:18:04;8.90;99.90
14349;DHT22;7258;50.376;8.742;2023-05-24T01:20:11;8.90;99.90
14349;DHT22;7258;50.376;8.742;2023-05-24T01:22:23;9.00;99.90
14349;DHT22;7258;50.376;8.742;2023-05-24T01:24:31;9.00;99.90
14349;DHT22;7258;50.376;8.742;2023-05-24T01:26:44;9.00;99.90
14349;DHT22;7258;50.376;8.742;2023-05-24T01:28:51;9.00;99.90
14349;DHT22;7258;50.376;8.742;2023-05-24T01:30:55;9.00;99.90
14349;DHT22;7258;50.376;8.742;2023-05-24T01:32:59;9.00;99.90
14349;DHT22;7258;50.376;8.742;2023-05-24T01:35:02;9.00;99.90
14349;DHT22;7258;50.376;8.742;2023-05-24T01:37:05;9.00;99.90
14349;DHT22;7258;50.376;8.742;2023-05-24T01:39:08;8.90;99.90
14349;DHT22;7258;50.376;8.742;2023-05-24T01:41:20;8.90;99.90
14349;DHT22;7258;50.376;8.742;2023-05-24T01:43:30;8.80;99.90
14349;DHT22;7258;50.376;8.742;2023-05-24T01:45:45;8.80;99.90
14349;DHT22;7258;50.376;8.742;2023-05-24T01:48:03;8.70;99.90
14349;DHT22;7258;50.376;8.742;2023-05-24T01:50:15;8.70;99.90
14349;DHT22;7258;50.376;8.742;2023-05-24T01:52:21;8.60;99.90
14349;DHT22;7258;50.376;8.742;2023-05-24T01:54:25;8.50;99.90
14349;DHT22;7258;50.376;8.742;2023-05-24T01:56:30;8.50;99.90
14349;DHT22;7258;50.376;8.742;2023-05-24T01:58:35;8.40;99.90
14349;DHT22;7258;50.376;8.742;2023-05-24T02:00:40;8.30;99.90
14349;DHT22;7258;50.376;8.742;2023-05-24T02:02:44;8.30;99.90
14349;DHT22;7258;50.376;8.742;2023-05-24T02:04:48;8.20;99.90
14349;DHT22;7258;50.376;8.742;2023-05-24T02:06:51;8.20;99.90
14349;DHT22;7258;50.376;8.742;2023-05-24T02:08:54;8.10;99.90
14349;DHT22;7258;50.376;8.742;2023-05-24T02:10:57;8.00;99.90
14349;DHT22;7258;50.376;8.742;2023-05-24T02:12:59;8.00;99.90
14349;DHT22;7258;50.376;8.742;2023-05-24T02:15:03;7.90;99.90
14349;DHT22;7258;50.376;8.742;2023-05-24T02:17:08;7.90;99.90
14349;DHT22;7258;50.376;8.742;2023-05-24T02:19:11;7.80;99.90
14349;DHT22;7258;50.376;8.742;2023-05-24T02:21:14;7.70;99.90
14349;DHT22;7258;50.376;8.742;2023-05-24T02:23:17;7.70;99.90
14349;DHT22;7258;50.376;8.742;2023-05-24T02:25:20;7.70;99.90
14349;DHT22;7258;50.376;8.742;2023-05-24T02:27:23;7.70;99.90
14349;DHT22;7258;50.376;8.742;2023-05-24T02:29:26;7.70;99.90
14349;DHT22;7258;50.376;8.742;2023-05-24T02:31:31;7.70;99.90
14349;DHT22;7258;50.376;8.742;2023-05-24T02:33:36;7.70;99.90
14349;DHT22;7258;50.376;8.742;2023-05-24T02:35:39;7.70;99.90
14349;DHT22;7258;50.376;8.742;2023-05-24T02:37:43;7.70;99.90
14349;DHT22;7258;50.376;8.742;2023-05-24T02:39:46;7.70;99.90
14349;DHT22;7258;50.376;8.742;2023-05-24T02:41:48;7.70;99.90
14349;DHT22;7258;50.376;8.742;2023-05-24T02:43:51;7.70;99.90
14349;DHT22;7258;50.376;8.742;2023-05-24T02:45:54;7.70;99.90
14349;DHT22;7258;50.376;8.742;2023-05-24T02:47:58;7.70;99.90
14349;DHT22;7258;50.376;8.742;2023-05-24T02:50:03;7.60;99.90
14349;DHT22;7258;50.376;8.742;2023-05-24T02:52:06;7.70;99.90
14349;DHT22;7258;50.376;8.742;2023-05-24T02:54:09;7.60;99.90
14349;DHT22;7258;50.376;8.742;2023-05-24T02:56:12;7.70;99.90
14349;DHT22;7258;50.376;8.742;2023-05-24T02:58:18;7.70;99.90
14349;DHT22;7258;50.376;8.742;2023-05-24T03:00:21;7.60;99.90
14349;DHT22;7258;50.376;8.742;2023-05-24T03:02:24;7.60;99.90
14349;DHT22;7258;50.376;8.742;2023-05-24T03:04:29;7.50;99.90
14349;DHT22;7258;50.376;8.742;2023-05-24T03:06:33;7.60;99.90
14349;DHT22;7258;50.376;8.742;2023-05-24T03:08:36;7.50;99.90
14349;DHT22;7258;50.376;8.742;2023-05-24T03:10:39;7.50;99.90
14349;DHT22;7258;50.376;8.742;2023-05-24T03:12:43;7.40;99.90
14349;DHT22;7258;50.376;8.742;2023-05-24T03:14:45;7.40;99.90
14349;DHT22;7258;50.376;8.742;2023-05-24T03:16:48;7.40;99.90
14349;DHT22;7258;50.376;8.742;2023-05-24T03:18:52;7.40;99.90
14349;DHT22;7258;50.376;8.742;2023-05-24T03:20:56;7.30;99.90
14349;DHT22;7258;50.376;8.742;2023-05-24T03:23:00;7.30;99.90
14349;DHT22;7258;50.376;8.742;2023-05-24T03:25:03;7.20;99.90
14349;DHT22;7258;50.376;8.742;2023-05-24T03:27:09;7.20;99.90
14349;DHT22;7258;50.376;8.742;2023-05-24T03:29:12;7.10;99.90
14349;DHT22;7258;50.376;8.742;2023-05-24T03:31:15;7.10;99.90
14349;DHT22;7258;50.376;8.742;2023-05-24T03:33:21;7.10;99.90
14349;DHT22;7258;50.376;8.742;2023-05-24T03:35:24;7.00;99.90
14349;DHT22;7258;50.376;8.742;2023-05-24T03:37:27;7.00;99.90
14349;DHT22;7258;50.376;8.742;2023-05-24T03:39:32;6.90;99.90
14349;DHT22;7258;50.376;8.742;2023-05-24T03:41:35;6.90;99.90
14349;DHT22;7258;50.376;8.742;2023-05-24T03:43:38;6.80;99.90
14349;DHT22;7258;50.376;8.742;2023-05-24T03:45:41;6.80;99.90
14349;DHT22;7258;50.376;8.742;2023-05-24T03:47:44;6.80;99.90
14349;DHT22;7258;50.376;8.742;2023-05-24T03:49:47;6.70;99.90
14349;DHT22;7258;50.376;8.742;2023-05-24T03:51:50;6.70;99.90
14349;DHT22;7258;50.376;8.742;2023-05-24T03:53:53;6.70;99.90
14349;DHT22;7258;50.376;8.742;2023-05-24T03:55:57;6.80;99.90
14349;DHT22;7258;50.376;8.742;2023-05-24T03:58:00;6.80;99.90
14349;DHT22;7258;50.376;8.742;2023-05-24T04:00:04;6.80;99.90
14349;DHT22;7258;50.376;8.742;2023-05-24T04:02:08;6.80;99.90
14349;DHT22;7258;50.376;8.742;2023-05-24T04:04:11;6.80;99.90
14349;DHT22;7258;50.376;8.742;2023-05-24T04:06:14;6.80;99.90
14349;DHT22;7258;50.376;8.742;2023-05-24T04:08:18;6.80;99.90
14349;DHT22;7258;50.376;8.742;2023-05-24T04:10:21;6.80;99.90
14349;DHT22;7258;50.376;8.742;2023-05-24T04:12:25;6.70;99.90
14349;DHT22;7258;50.376;8.742;2023-05-24T04:14:31;6.70;99.90
14349;DHT22;7258;50.376;8.742;2023-05-24T04:16:34;6.80;99.90
14349;DHT22;7258;50.376;8.742;2023-05-24T04:18:41;6.80;99.90
14349;DHT22;7258;50.376;8.742;2023-05-24T04:20:44;6.80;99.90
14349;DHT22;7258;50.376;8.742;2023-05-24T04:22:47;6.80;99.90
14349;DHT22;7258;50.376;8.742;2023-05-24T04:24:49;6.90;99.90
14349;DHT22;7258;50.376;8.742;2023-05-24T04:26:54;6.90;99.90
14349;DHT22;7258;50.376;8.742;2023-05-24T04:29:00;7.00;99.90
14349;DHT22;7258;50.376;8.742;2023-05-24T04:31:04;7.00;99.90
14349;DHT22;7258;50.376;8.742;2023-05-24T04:33:10;7.00;99.90
14349;DHT22;7258;50.376;8.742;2023-05-24T04:35:13;7.00;99.90
14349;DHT22;7258;50.376;8.742;2023-05-24T04:37:16;7.00;99.90
14349;DHT22;7258;50.376;8.742;2023-05-24T04:39:19;7.00;99.90
14349;DHT22;7258;50.376;8.742;2023-05-24T04:41:22;7.10;99.90
14349;DHT22;7258;50.376;8.742;2023-05-24T04:43:25;7.20;99.90
14349;DHT22;7258;50.376;8.742;2023-05-24T04:45:29;7.20;99.90
14349;DHT22;7258;50.376;8.742;2023-05-24T04:47:33;7.30;99.90
14349;DHT22;7258;50.376;8.742;2023-05-24T04:49:36;7.40;99.90
14349;DHT22;7258;50.376;8.742;2023-05-24T04:51:40;7.40;99.90
14349;DHT22;7258;50.376;8.742;2023-05-24T04:53:43;7.50;99.90
14349;DHT22;7258;50.376;8.742;2023-05-24T04:55:46;7.60;99.90
14349;DHT22;7258;50.376;8.742;2023-05-24T04:57:49;7.60;99.90
14349;DHT22;7258;50.376;8.742;2023-05-24T04:59:52;7.70;99.90
14349;DHT22;7258;50.376;8.742;2023-05-24T05:01:56;7.70;99.90
14349;DHT22;7258;50.376;8.742;2023-05-24T05:03:59;7.80;99.90
14349;DHT22;7258;50.376;8.742;2023-05-24T05:06:05;7.80;99.90
14349;DHT22;7258;50.376;8.742;2023-05-24T05:08:08;7.90;99.90
14349;DHT22;7258;50.376;8.742;2023-05-24T05:10:11;7.90;99.90
14349;DHT22;7258;50.376;8.742;2023-05-24T05:12:15;8.00;99.90
14349;DHT22;7258;50.376;8.742;2023-05-24T05:14:22;8.10;99.90
14349;DHT22;7258;50.376;8.742;2023-05-24T05:16:27;8.10;99.90
14349;DHT22;7258;50.376;8.742;2023-05-24T05:18:32;8.20;99.90
14349;DHT22;7258;50.376;8.742;2023-05-24T05:20:36;8.20;99.90
14349;DHT22;7258;50.376;8.742;2023-05-24T05:22:41;8.30;99.90
14349;DHT22;7258;50.376;8.742;2023-05-24T05:24:49;8.30;99.90
14349;DHT22;7258;50.376;8.742;2023-05-24T05:26:52;8.30;99.90
14349;DHT22;7258;50.376;8.742;2023-05-24T05:28:56;8.40;99.90
14349;DHT22;7258;50.376;8.742;2023-05-24T05:31:02;8.50;99.90
14349;DHT22;7258;50.376;8.742;2023-05-24T05:33:05;8.50;99.90
14349;DHT22;7258;50.376;8.742;2023-05-24T05:35:09;8.60;99.90
14349;DHT22;7258;50.376;8.742;2023-05-24T05:37:13;8.70;99.90
14349;DHT22;7258;50.376;8.742;2023-05-24T05:39:18;8.80;99.90
14349;DHT22;7258;50.376;8.742;2023-05-24T05:41:21;8.90;99.90
14349;DHT22;7258;50.376;8.742;2023-05-24T05:43:24;9.00;99.90
14349;DHT22;7258;50.376;8.742;2023-05-24T05:45:29;9.10;99.90
14349;DHT22;7258;50.376;8.742;2023-05-24T05:47:33;9.20;99.90
14349;DHT22;7258;50.376;8.742;2023-05-24T05:49:36;9.20;99.90
14349;DHT22;7258;50.376;8.742;2023-05-24T05:51:43;9.30;99.90
14349;DHT22;7258;50.376;8.742;2023-05-24T05:53:57;9.30;99.90
14349;DHT22;7258;50.376;8.742;2023-05-24T05:56:00;9.30;99.90
14349;DHT22;7258;50.376;8.742;2023-05-24T05:58:03;9.30;99.90
14349;DHT22;7258;50.376;8.742;2023-05-24T06:00:08;9.30;99.90
14349;DHT22;7258;50.376;8.742;2023-05-24T06:02:11;9.40;99.90
14349;DHT22;7258;50.376;8.742;2023-05-24T06:04:15;9.60;99.90
14349;DHT22;7258;50.376;8.742;2023-05-24T06:06:20;9.80;99.90
14349;DHT22;7258;50.376;8.742;2023-05-24T06:08:25;9.90;99.90
14349;DHT22;7258;50.376;8.742;2023-05-24T06:10:31;10.00;99.90
14349;DHT22;7258;50.376;8.742;2023-05-24T06:12:35;10.00;99.90
14349;DHT22;7258;50.376;8.742;2023-05-24T06:14:38;10.10;99.90
14349;DHT22;7258;50.376;8.742;2023-05-24T06:16:42;10.20;99.90
14349;DHT22;7258;50.376;8.742;2023-05-24T06:18:46;10.40;99.90
14349;DHT22;7258;50.376;8.742;2023-05-24T06:21:06;10.60;99.90
14349;DHT22;7258;50.376;8.742;2023-05-24T06:23:11;10.70;99.90
14349;DHT22;7258;50.376;8.742;2023-05-24T06:25:16;10.80;99.90
14349;DHT22;7258;50.376;8.742;2023-05-24T06:27:21;10.80;99.90
14349;DHT22;7258;50.376;8.742;2023-05-24T06:29:24;10.90;99.90
14349;DHT22;7258;50.376;8.742;2023-05-24T06:31:28;10.90;99.90
14349;DHT22;7258;50.376;8.742;2023-05-24T06:33:31;11.00;99.90
14349;DHT22;7258;50.376;8.742;2023-05-24T06:35:38;10.90;99.90
14349;DHT22;7258;50.376;8.742;2023-05-24T06:37:48;10.80;99.90
14349;DHT22;7258;50.376;8.742;2023-05-24T06:39:52;10.60;99.90
14349;DHT22;7258;50.376;8.742;2023-05-24T06:41:56;10.50;99.90
14349;DHT22;7258;50.376;8.742;2023-05-24T06:44:00;10.40;99.90
14349;DHT22;7258;50.376;8.742;2023-05-24T06:46:03;10.30;99.90
14349;DHT22;7258;50.376;8.742;2023-05-24T06:48:06;10.30;99.90
14349;DHT22;7258;50.376;8.742;2023-05-24T06:50:09;10.40;99.90
14349;DHT22;7258;50.376;8.742;2023-05-24T06:52:13;10.50;99.90
14349;DHT22;7258;50.376;8.742;2023-05-24T06:54:16;10.60;99.90
14349;DHT22;7258;50.376;8.742;2023-05-24T06:56:19;10.80;99.90
14349;DHT22;7258;50.376;8.742;2023-05-24T06:58:27;11.00;99.90
14349;DHT22;7258;50.376;8.742;2023-05-24T07:00:30;11.20;99.90
14349;DHT22;7258;50.376;8.742;2023-05-24T07:02:36;11.50;99.90
14349;DHT22;7258;50.376;8.742;2023-05-24T07:04:39;11.60;99.90
14349;DHT22;7258;50.376;8.742;2023-05-24T07:06:43;11.60;99.90
14349;DHT22;7258;50.376;8.742;2023-05-24T07:08:46;11.50;99.90
14349;DHT22;7258;50.376;8.742;2023-05-24T07:10:51;11.40;99.90
14349;DHT22;7258;50.376;8.742;2023-05-24T07:12:56;11.30;99.90
14349;DHT22;7258;50.376;8.742;2023-05-24T07:15:00;11.10;99.90
14349;DHT22;7258;50.376;8.742;2023-05-24T07:17:04;11.10;99.90
14349;DHT22;7258;50.376;8.742;2023-05-24T07:19:07;11.20;99.90
14349;DHT22;7258;50.376;8.742;2023-05-24T07:21:10;11.30;99.90
14349;DHT22;7258;50.376;8.742;2023-05-24T07:23:13;11.40;99.90
14349;DHT22;7258;50.376;8.742;2023-05-24T07:25:18;11.50;99.90
14349;DHT22;7258;50.376;8.742;2023-05-24T07:27:22;11.50;99.90
14349;DHT22;7258;50.376;8.742;2023-05-24T07:29:25;11.50;99.90
14349;DHT22;7258;50.376;8.742;2023-05-24T07:31:29;11.40;99.90
14349;DHT22;7258;50.376;8.742;2023-05-24T07:33:35;11.30;99.90
14349;DHT22;7258;50.376;8.742;2023-05-24T07:35:39;11.20;99.90
14349;DHT22;7258;50.376;8.742;2023-05-24T07:37:44;11.20;99.90
14349;DHT22;7258;50.376;8.742;2023-05-24T07:39:47;11.20;99.90
14349;DHT22;7258;50.376;8.742;2023-05-24T07:41:50;11.30;99.90
14349;DHT22;7258;50.376;8.742;2023-05-24T07:43:53;11.30;99.90
14349;DHT22;7258;50.376;8.742;2023-05-24T07:45:58;11.20;99.90
14349;DHT22;7258;50.376;8.742;2023-05-24T07:48:08;11.30;99.90
14349;DHT22;7258;50.376;8.742;2023-05-24T07:50:11;11.20;99.90
14349;DHT22;7258;50.376;8.742;2023-05-24T07:52:14;11.30;99.90
14349;DHT22;7258;50.376;8.742;2023-05-24T07:54:17;11.40;99.90
14349;DHT22;7258;50.376;8.742;2023-05-24T07:56:20;11.60;99.90
14349;DHT22;7258;50.376;8.742;2023-05-24T07:58:24;11.70;99.90
14349;DHT22;7258;50.376;8.742;2023-05-24T08:00:28;11.80;99.90
14349;DHT22;7258;50.376;8.742;2023-05-24T08:02:31;11.90;99.90
14349;DHT22;7258;50.376;8.742;2023-05-24T08:04:37;11.90;99.90
14349;DHT22;7258;50.376;8.742;2023-05-24T08:06:40;11.90;99.90
14349;DHT22;7258;50.376;8.742;2023-05-24T08:08:44;12.00;99.90
14349;DHT22;7258;50.376;8.742;2023-05-24T08:10:48;12.10;99.90
14349;DHT22;7258;50.376;8.742;2023-05-24T08:12:51;12.10;99.90
14349;DHT22;7258;50.376;8.742;2023-05-24T08:15:00;12.30;99.90
14349;DHT22;7258;50.376;8.742;2023-05-24T08:17:06;12.50;99.90
14349;DHT22;7258;50.376;8.742;2023-05-24T08:19:11;12.80;99.90
14349;DHT22;7258;50.376;8.742;2023-05-24T08:21:18;13.20;99.90
14349;DHT22;7258;50.376;8.742;2023-05-24T08:23:21;13.60;99.90
14349;DHT22;7258;50.376;8.742;2023-05-24T08:25:27;13.50;99.90
14349;DHT22;7258;50.376;8.742;2023-05-24T08:27:33;13.30;99.90
14349;DHT22;7258;50.376;8.742;2023-05-24T08:29:38;13.20;99.90
14349;DHT22;7258;50.376;8.742;2023-05-24T08:31:41;13.10;99.90
14349;DHT22;7258;50.376;8.742;2023-05-24T08:33:45;12.90;99.90
14349;DHT22;7258;50.376;8.742;2023-05-24T08:35:51;12.70;99.90
14349;DHT22;7258;50.376;8.742;2023-05-24T08:37:55;12.60;99.90
14349;DHT22;7258;50.376;8.742;2023-05-24T08:40:00;12.50;99.90
14349;DHT22;7258;50.376;8.742;2023-05-24T08:42:06;12.40;99.90
14349;DHT22;7258;50.376;8.742;2023-05-24T08:44:12;12.30;99.90
14349;DHT22;7258;50.376;8.742;2023-05-24T08:46:16;12.20;99.90
14349;DHT22;7258;50.376;8.742;2023-05-24T08:48:20;12.30;99.90
14349;DHT22;7258;50.376;8.742;2023-05-24T08:50:24;12.50;99.90
14349;DHT22;7258;50.376;8.742;2023-05-24T08:52:30;12.80;99.90
14349;DHT22;7258;50.376;8.742;2023-05-24T08:54:35;13.10;99.90
14349;DHT22;7258;50.376;8.742;2023-05-24T08:56:39;13.20;99.90
14349;DHT22;7258;50.376;8.742;2023-05-24T08:58:43;13.20;99.90
14349;DHT22;7258;50.376;8.742;2023-05-24T09:00:48;13.10;99.90
14349;DHT22;7258;50.376;8.742;2023-05-24T09:02:51;12.90;99.90
14349;DHT22;7258;50.376;8.742;2023-05-24T09:04:56;12.80;99.90
14349;DHT22;7258;50.376;8.742;2023-05-24T09:07:11;12.80;99.90
14349;DHT22;7258;50.376;8.742;2023-05-24T09:09:17;13.20;99.90
14349;DHT22;7258;50.376;8.742;2023-05-24T09:11:23;13.70;99.90
14349;DHT22;7258;50.376;8.742;2023-05-24T09:13:27;14.10;99.20
14349;DHT22;7258;50.376;8.742;2023-05-24T09:15:32;14.30;98.80
14349;DHT22;7258;50.376;8.742;2023-05-24T09:17:36;14.40;98.20
14349;DHT22;7258;50.376;8.742;2023-05-24T09:19:43;14.60;98.30
14349;DHT22;7258;50.376;8.742;2023-05-24T09:21:48;14.70;97.70
14349;DHT22;7258;50.376;8.742;2023-05-24T09:23:52;14.90;97.30
14349;DHT22;7258;50.376;8.742;2023-05-24T09:25:55;15.00;97.00
14349;DHT22;7258;50.376;8.742;2023-05-24T09:28:05;15.30;97.00
14349;DHT22;7258;50.376;8.742;2023-05-24T09:30:09;15.40;96.80
14349;DHT22;7258;50.376;8.742;2023-05-24T09:32:14;15.50;96.00
14349;DHT22;7258;50.376;8.742;2023-05-24T09:34:17;15.40;95.20
14349;DHT22;7258;50.376;8.742;2023-05-24T09:36:20;15.00;96.00
14349;DHT22;7258;50.376;8.742;2023-05-24T09:38:27;14.80;96.60
14349;DHT22;7258;50.376;8.742;2023-05-24T09:40:31;14.70;96.60
14349;DHT22;7258;50.376;8.742;2023-05-24T09:42:34;14.60;96.80
14349;DHT22;7258;50.376;8.742;2023-05-24T09:44:40;14.40;97.40
14349;DHT22;7258;50.376;8.742;2023-05-24T09:46:46;14.30;97.70
14349;DHT22;7258;50.376;8.742;2023-05-24T09:48:57;14.40;97.30
14349;DHT22;7258;50.376;8.742;2023-05-24T09:51:04;14.30;97.20
14349;DHT22;7258;50.376;8.742;2023-05-24T09:53:10;14.60;97.60
14349;DHT22;7258;50.376;8.742;2023-05-24T09:55:14;14.80;97.60
14349;DHT22;7258;50.376;8.742;2023-05-24T09:57:18;15.00;96.50
14349;DHT22;7258;50.376;8.742;2023-05-24T09:59:23;15.20;96.30
14349;DHT22;7258;50.376;8.742;2023-05-24T10:01:31;15.10;95.60
14349;DHT22;7258;50.376;8.742;2023-05-24T10:03:36;15.20;95.50
14349;DHT22;7258;50.376;8.742;2023-05-24T10:05:45;15.50;96.40
14349;DHT22;7258;50.376;8.742;2023-05-24T10:07:50;15.80;95.60
14349;DHT22;7258;50.376;8.742;2023-05-24T10:09:54;16.00;95.60
14349;DHT22;7258;50.376;8.742;2023-05-24T10:12:01;16.30;95.50
14349;DHT22;7258;50.376;8.742;2023-05-24T10:14:05;16.60;94.70
14349;DHT22;7258;50.376;8.742;2023-05-24T10:16:09;16.90;94.20
14349;DHT22;7258;50.376;8.742;2023-05-24T10:18:14;17.00;93.40
14349;DHT22;7258;50.376;8.742;2023-05-24T10:20:17;17.20;93.20
14349;DHT22;7258;50.376;8.742;2023-05-24T10:22:24;17.20;93.10
14349;DHT22;7258;50.376;8.742;2023-05-24T10:24:34;17.20;93.10
14349;DHT22;7258;50.376;8.742;2023-05-24T10:26:38;16.90;92.50
14349;DHT22;7258;50.376;8.742;2023-05-24T10:28:46;17.00;92.60
14349;DHT22;7258;50.376;8.742;2023-05-24T10:31:00;17.30;93.10
14349;DHT22;7258;50.376;8.742;2023-05-24T10:33:05;17.60;92.30
14349;DHT22;7258;50.376;8.742;2023-05-24T10:35:12;17.50;92.10
14349;DHT22;7258;50.376;8.742;2023-05-24T10:37:16;17.50;91.80
14349;DHT22;7258;50.376;8.742;2023-05-24T10:39:20;17.60;91.70
14349;DHT22;7258;50.376;8.742;2023-05-24T10:41:25;17.60;91.80
14349;DHT22;7258;50.376;8.742;2023-05-24T10:43:29;17.60;91.90
14349;DHT22;7258;50.376;8.742;2023-05-24T10:45:39;17.60;91.80
14349;DHT22;7258;50.376;8.742;2023-05-24T10:47:44;17.40;91.90
14349;DHT22;7258;50.376;8.742;2023-05-24T10:49:49;17.00;91.90
14349;DHT22;7258;50.376;8.742;2023-05-24T10:52:01;16.70;92.10
14349;DHT22;7258;50.376;8.742;2023-05-24T10:54:13;16.40;93.30
14349;DHT22;7258;50.376;8.742;2023-05-24T10:56:17;16.30;93.40
14349;DHT22;7258;50.376;8.742;2023-05-24T10:58:27;16.20;94.00
14349;DHT22;7258;50.376;8.742;2023-05-24T11:00:45;16.00;94.20
14349;DHT22;7258;50.376;8.742;2023-05-24T11:02:50;15.80;94.20
14349;DHT22;7258;50.376;8.742;2023-05-24T11:04:55;15.80;94.60
14349;DHT22;7258;50.376;8.742;2023-05-24T11:07:03;15.60;94.90
14349;DHT22;7258;50.376;8.742;2023-05-24T11:09:10;15.50;95.00
14349;DHT22;7258;50.376;8.742;2023-05-24T11:11:13;15.60;94.90
14349;DHT22;7258;50.376;8.742;2023-05-24T11:13:26;15.80;94.60
14349;DHT22;7258;50.376;8.742;2023-05-24T11:15:32;16.30;94.60
14349;DHT22;7258;50.376;8.742;2023-05-24T11:18:13;16.50;94.00
14349;DHT22;7258;50.376;8.742;2023-05-24T11:20:19;16.50;93.10
14349;DHT22;7258;50.376;8.742;2023-05-24T11:22:24;16.20;93.40
14349;DHT22;7258;50.376;8.742;2023-05-24T11:24:27;16.30;93.80
14349;DHT22;7258;50.376;8.742;2023-05-24T11:26:31;16.50;94.10
14349;DHT22;7258;50.376;8.742;2023-05-24T11:28:35;16.70;93.20
14349;DHT22;7258;50.376;8.742;2023-05-24T11:30:40;16.70;93.00
14349;DHT22;7258;50.376;8.742;2023-05-24T11:32:46;16.70;92.80
14349;DHT22;7258;50.376;8.742;2023-05-24T11:34:50;16.70;92.90
14349;DHT22;7258;50.376;8.742;2023-05-24T11:36:54;16.70;93.00
14349;DHT22;7258;50.376;8.742;2023-05-24T11:38:58;16.70;92.80
14349;DHT22;7258;50.376;8.742;2023-05-24T11:41:02;16.70;92.60
14349;DHT22;7258;50.376;8.742;2023-05-24T11:43:06;16.70;92.80
14349;DHT22;7258;50.376;8.742;2023-05-24T11:45:10;16.60;92.80
14349;DHT22;7258;50.376;8.742;2023-05-24T11:47:14;16.70;93.30
14349;DHT22;7258;50.376;8.742;2023-05-24T11:49:17;16.80;92.70
14349;DHT22;7258;50.376;8.742;2023-05-24T11:51:25;16.90;92.20
14349;DHT22;7258;50.376;8.742;2023-05-24T11:53:28;17.20;92.30
14349;DHT22;7258;50.376;8.742;2023-05-24T11:55:33;17.30;92.10
14349;DHT22;7258;50.376;8.742;2023-05-24T11:57:37;17.60;91.70
14349;DHT22;7258;50.376;8.742;2023-05-24T11:59:43;17.70;91.30
14349;DHT22;7258;50.376;8.742;2023-05-24T12:01:49;17.90;90.80
14349;DHT22;7258;50.376;8.742;2023-05-24T12:03:54;18.10;91.10
14349;DHT22;7258;50.376;8.742;2023-05-24T12:06:01;18.00;88.90
14349;DHT22;7258;50.376;8.742;2023-05-24T12:08:06;17.30;90.60
14349;DHT22;7258;50.376;8.742;2023-05-24T12:10:13;17.30;90.60
14349;DHT22;7258;50.376;8.742;2023-05-24T12:12:19;17.40;90.60
14349;DHT22;7258;50.376;8.742;2023-05-24T12:14:34;17.30;91.00
14349;DHT22;7258;50.376;8.742;2023-05-24T12:16:41;17.00;90.90
14349;DHT22;7258;50.376;8.742;2023-05-24T12:18:44;16.70;91.30
14349;DHT22;7258;50.376;8.742;2023-05-24T12:21:09;16.50;91.70
14349;DHT22;7258;50.376;8.742;2023-05-24T12:23:14;16.30;92.20
14349;DHT22;7258;50.376;8.742;2023-05-24T12:25:19;16.40;92.60
14349;DHT22;7258;50.376;8.742;2023-05-24T12:27:26;16.50;92.80
14349;DHT22;7258;50.376;8.742;2023-05-24T12:29:32;16.60;92.50
14349;DHT22;7258;50.376;8.742;2023-05-24T12:31:36;16.70;92.30
14349;DHT22;7258;50.376;8.742;2023-05-24T12:33:40;17.00;92.20
14349;DHT22;7258;50.376;8.742;2023-05-24T12:35:49;17.30;91.70
14349;DHT22;7258;50.376;8.742;2023-05-24T12:37:57;17.60;90.90
14349;DHT22;7258;50.376;8.742;2023-05-24T12:47:40;18.30;89.20
14349;DHT22;7258;50.376;8.742;2023-05-24T12:49:51;18.10;89.10
14349;DHT22;7258;50.376;8.742;2023-05-24T12:51:59;18.10;89.90
14349;DHT22;7258;50.376;8.742;2023-05-24T12:54:03;18.10;89.80
14349;DHT22;7258;50.376;8.742;2023-05-24T12:56:07;18.10;89.40
14349;DHT22;7258;50.376;8.742;2023-05-24T12:58:13;18.10;89.90
14349;DHT22;7258;50.376;8.742;2023-05-24T13:00:22;18.00;88.70
14349;DHT22;7258;50.376;8.742;2023-05-24T13:02:27;17.90;87.90
14349;DHT22;7258;50.376;8.742;2023-05-24T13:04:34;17.70;89.20
14349;DHT22;7258;50.376;8.742;2023-05-24T13:06:37;17.80;89.50
14349;DHT22;7258;50.376;8.742;2023-05-24T13:08:41;17.70;90.10
14349;DHT22;7258;50.376;8.742;2023-05-24T13:10:50;18.00;90.00
14349;DHT22;7258;50.376;8.742;2023-05-24T13:13:00;18.10;88.80
14349;DHT22;7258;50.376;8.742;2023-05-24T13:15:03;18.10;89.40
14349;DHT22;7258;50.376;8.742;2023-05-24T13:17:07;18.30;86.80
14349;DHT22;7258;50.376;8.742;2023-05-24T13:19:10;18.00;87.00
14349;DHT22;7258;50.376;8.742;2023-05-24T13:21:15;18.00;87.70
14349;DHT22;7258;50.376;8.742;2023-05-24T13:23:22;17.90;87.80
14349;DHT22;7258;50.376;8.742;2023-05-24T13:25:25;17.60;89.30
14349;DHT22;7258;50.376;8.742;2023-05-24T13:27:28;17.70;90.40
14349;DHT22;7258;50.376;8.742;2023-05-24T13:29:32;17.90;89.20
14349;DHT22;7258;50.376;8.742;2023-05-24T13:31:51;17.90;88.60
14349;DHT22;7258;50.376;8.742;2023-05-24T13:33:54;18.20;87.40
14349;DHT22;7258;50.376;8.742;2023-05-24T13:35:58;18.30;88.30